Terminal Aerodrome Forecast
Issued by NWS

Home | Current Version | Previous Version | Text Only | Print | Product List | Glossary On
Versions: 1 2 3 4 5 6 7 8 9 10 11 12 13 14 15 16 17 18 19 20 21 22 23 24 25 26 27 28 29 30 31 32 33 34 35 36 37 38
000
FTUS43 KGLD 270051 AAA
TAFMCK
TAF AMD
KMCK 270051Z 2701/2724 01012G22KT P6SM VCTS SCT025CB OVC040
      TEMPO 2701/2703 5SM -TSRA BKN025CB
     FM270600 02010KT P6SM VCTS BKN010 OVC040CB
     FM271400 03012G18KT 3SM SHRA BR OVC003
     FM272200 04011KT P6SM VCSH BKN050=

USA.gov is the U.S. government's official web portal to all federal, state and local government web resources and services.